createdAt,value
2022-12-14T00:00:22.080Z,22.03
2022-12-14T00:02:50.872Z,20.33
2022-12-14T00:05:19.960Z,24.10
2022-12-14T00:07:49.141Z,21.53
2022-12-14T00:10:17.723Z,23.40
2022-12-14T00:12:48.906Z,21.40
2022-12-14T00:15:17.577Z,21.10
2022-12-14T00:17:46.467Z,20.23
2022-12-14T00:20:15.461Z,20.60
2022-12-14T00:22:43.563Z,19.03
2022-12-14T00:25:12.035Z,24.27
2022-12-14T00:27:44.641Z,21.67
2022-12-14T00:30:17.101Z,22.03
2022-12-14T00:32:45.920Z,20.87
2022-12-14T00:35:17.073Z,26.43
2022-12-14T00:37:48.759Z,21.67
2022-12-14T00:40:18.879Z,22.53
2022-12-14T00:42:46.987Z,22.83
2022-12-14T00:45:17.002Z,22.07
2022-12-14T00:47:45.412Z,24.83
2022-12-14T00:50:13.595Z,21.60
2022-12-14T00:52:41.736Z,20.37
2022-12-14T00:55:12.005Z,20.17
2022-12-14T00:57:47.266Z,20.20
2022-12-14T01:00:19.755Z,19.63
2022-12-14T01:02:49.260Z,19.27
2022-12-14T01:05:18.978Z,19.27
2022-12-14T01:07:48.831Z,18.27
2022-12-14T01:10:17.747Z,20.67
2022-12-14T01:12:46.050Z,22.20
2022-12-14T01:15:14.832Z,16.87
2022-12-14T01:17:44.905Z,22.87
2022-12-14T01:20:13.371Z,18.17
2022-12-14T01:22:44.645Z,17.70
2022-12-14T01:25:13.692Z,17.10
2022-12-14T01:27:41.894Z,16.13
2022-12-14T01:30:10.926Z,18.07
2022-12-14T01:32:40.402Z,19.50
2022-12-14T01:35:10.614Z,19.77
2022-12-14T01:37:38.998Z,17.27
2022-12-14T01:40:08.351Z,19.67
2022-12-14T01:42:37.644Z,18.70
2022-12-14T01:45:08.504Z,17.57
2022-12-14T01:47:42.417Z,19.93
2022-12-14T01:50:24.428Z,16.70
2022-12-14T01:52:57.367Z,19.93
2022-12-14T01:55:30.516Z,19.27
2022-12-14T01:58:02.539Z,18.27
2022-12-14T02:00:30.724Z,17.13
2022-12-14T02:03:03.357Z,16.90
2022-12-14T02:05:36.562Z,18.43
2022-12-14T02:08:06.625Z,19.07
2022-12-14T02:10:36.581Z,14.93
2022-12-14T02:13:10.219Z,16.30
2022-12-14T02:15:40.142Z,16.67
2022-12-14T02:18:12.503Z,14.47
2022-12-14T02:20:50.933Z,15.50
2022-12-14T02:23:42.945Z,14.00
2022-12-14T02:26:59.633Z,15.00
2022-12-14T02:30:16.451Z,14.60
2022-12-14T02:33:04.215Z,16.17
2022-12-14T02:35:43.186Z,14.67
2022-12-14T02:38:21.467Z,14.27
2022-12-14T02:41:02.532Z,15.07
2022-12-14T02:43:38.212Z,14.90
2022-12-14T02:46:16.883Z,15.13
2022-12-14T02:48:51.591Z,14.30
2022-12-14T02:51:26.753Z,14.53
2022-12-14T02:53:58.476Z,15.80
2022-12-14T02:56:34.575Z,13.37
2022-12-14T02:59:04.959Z,15.47
2022-12-14T03:01:38.247Z,16.30
2022-12-14T03:04:08.204Z,15.23
2022-12-14T03:06:37.425Z,14.30
2022-12-14T03:09:08.651Z,14.83
2022-12-14T03:11:46.473Z,13.87
2022-12-14T03:14:20.161Z,13.37
2022-12-14T03:16:53.630Z,14.97
2022-12-14T03:19:26.402Z,14.77
2022-12-14T03:21:59.497Z,15.50
2022-12-14T03:24:32.128Z,15.77
2022-12-14T03:27:04.079Z,12.23
2022-12-14T03:29:40.922Z,14.40
2022-12-14T03:32:13.471Z,12.33
2022-12-14T03:34:47.680Z,15.83
2022-12-14T03:37:21.487Z,16.10
2022-12-14T03:39:49.976Z,15.33
2022-12-14T03:42:24.047Z,16.37
2022-12-14T03:45:01.424Z,15.60
2022-12-14T03:47:52.658Z,14.13
2022-12-14T03:50:25.678Z,13.80
2022-12-14T03:53:01.756Z,13.67
2022-12-14T03:55:37.312Z,12.57
2022-12-14T03:58:24.328Z,15.90
2022-12-14T04:00:58.994Z,13.40
2022-12-14T04:03:37.258Z,12.10
2022-12-14T04:06:10.363Z,15.97
2022-12-14T04:08:45.535Z,13.50
2022-12-14T04:11:34.230Z,14.90
2022-12-14T04:14:30.856Z,11.90
2022-12-14T04:17:19.130Z,14.93
2022-12-14T04:19:55.751Z,14.17
2022-12-14T04:22:29.682Z,12.73
2022-12-14T04:25:20.458Z,13.60
2022-12-14T04:27:53.040Z,12.87
2022-12-14T04:30:21.652Z,14.53
2022-12-14T04:32:55.292Z,15.20
2022-12-14T04:35:30.502Z,13.50
2022-12-14T04:38:05.284Z,12.80
2022-12-14T04:40:38.738Z,13.27
2022-12-14T04:43:11.149Z,14.53
2022-12-14T04:45:44.084Z,13.67
2022-12-14T04:48:21.559Z,15.73
2022-12-14T04:50:57.756Z,14.00
2022-12-14T04:53:31.605Z,15.43
2022-12-14T04:56:07.027Z,14.53
2022-12-14T04:58:39.495Z,12.53
2022-12-14T05:01:22.734Z,20.57
2022-12-14T05:04:00.411Z,16.47
2022-12-14T05:06:39.319Z,16.30
2022-12-14T05:09:19.389Z,14.83
2022-12-14T05:11:54.751Z,13.20
2022-12-14T05:14:30.627Z,14.00
2022-12-14T05:17:03.417Z,13.27
2022-12-14T05:19:35.238Z,14.77
2022-12-14T05:22:07.536Z,13.93
2022-12-14T05:24:36.233Z,17.20
2022-12-14T05:27:04.510Z,21.20
2022-12-14T05:29:32.666Z,22.83
2022-12-14T05:32:01.738Z,15.63
2022-12-14T05:34:30.848Z,16.87
2022-12-14T05:37:02.209Z,13.73
2022-12-14T05:39:32.958Z,13.47
2022-12-14T05:42:01.424Z,16.50
2022-12-14T05:44:29.910Z,27.33
2022-12-14T05:46:58.070Z,26.97
2022-12-14T05:49:26.575Z,19.23
2022-12-14T05:51:55.637Z,15.40
2022-12-14T05:54:23.730Z,16.87
2022-12-14T05:56:53.330Z,22.93
2022-12-14T05:59:22.131Z,28.20
2022-12-14T06:01:51.628Z,35.23
2022-12-14T06:04:21.686Z,15.23
2022-12-14T06:06:50.463Z,28.37
2022-12-14T06:09:19.216Z,14.83
2022-12-14T06:11:50.145Z,13.23
2022-12-14T06:14:20.293Z,11.20
2022-12-14T06:16:48.881Z,12.53
2022-12-14T06:19:18.595Z,14.97
2022-12-14T06:21:48.539Z,12.80
2022-12-14T06:24:16.951Z,19.37
2022-12-14T06:26:46.218Z,15.30
2022-12-14T06:29:18.736Z,16.53
2022-12-14T06:31:50.196Z,12.70
2022-12-14T06:34:22.365Z,24.37
2022-12-14T06:36:51.923Z,25.67
2022-12-14T06:39:20.287Z,15.20
2022-12-14T06:41:51.905Z,13.97
2022-12-14T06:44:21.555Z,15.23
2022-12-14T06:46:51.691Z,15.27
2022-12-14T06:49:23.361Z,13.30
2022-12-14T06:51:52.155Z,14.77
2022-12-14T06:54:20.915Z,14.07
2022-12-14T06:56:49.749Z,15.83
2022-12-14T06:59:18.658Z,16.30
2022-12-14T07:01:49.903Z,13.53
2022-12-14T07:04:22.817Z,15.20
2022-12-14T07:06:51.220Z,15.10
2022-12-14T07:09:19.960Z,14.97
2022-12-14T07:11:51.390Z,13.67
2022-12-14T07:14:19.854Z,15.27
2022-12-14T07:16:48.914Z,13.27
2022-12-14T07:19:20.466Z,13.93
2022-12-14T07:21:49.065Z,11.63
2022-12-14T07:24:17.774Z,14.47
2022-12-14T07:26:46.838Z,11.77
2022-12-14T07:29:17.036Z,11.97
2022-12-14T07:31:49.829Z,13.53
2022-12-14T07:34:20.110Z,12.10
2022-12-14T07:36:51.168Z,12.87
2022-12-14T07:39:20.734Z,12.73
2022-12-14T07:41:50.719Z,11.10
2022-12-14T07:44:21.390Z,12.97
2022-12-14T07:46:50.126Z,13.37
2022-12-14T07:49:20.371Z,12.13
2022-12-14T07:51:53.172Z,11.23
2022-12-14T07:54:22.507Z,10.20
2022-12-14T07:56:51.288Z,15.63
2022-12-14T07:59:19.483Z,15.77
2022-12-14T08:01:47.861Z,15.73
2022-12-14T08:04:18.699Z,11.87
2022-12-14T08:06:49.451Z,20.03
2022-12-14T08:09:20.237Z,17.57
2022-12-14T08:11:50.435Z,13.20
2022-12-14T08:14:20.859Z,15.00
2022-12-14T08:16:50.584Z,17.00
2022-12-14T08:19:21.470Z,13.67
2022-12-14T08:21:51.164Z,16.67
2022-12-14T08:24:20.059Z,12.53
2022-12-14T08:26:49.108Z,13.37
2022-12-14T08:29:18.436Z,12.00
2022-12-14T08:31:48.152Z,13.13
2022-12-14T08:34:22.249Z,14.93
2022-12-14T08:36:54.048Z,11.90
2022-12-14T08:39:22.612Z,11.73
2022-12-14T08:41:57.630Z,14.20
2022-12-14T08:44:25.685Z,12.57
2022-12-14T08:46:53.777Z,13.37
2022-12-14T08:49:26.502Z,10.77
2022-12-14T08:52:00.433Z,17.53
2022-12-14T08:54:29.019Z,14.50
2022-12-14T08:56:57.089Z,11.67
2022-12-14T08:59:59.552Z,13.03
2022-12-14T09:02:14.152Z,11.10
2022-12-14T09:04:42.657Z,15.80
2022-12-14T09:07:12.858Z,36.33
2022-12-14T09:09:41.175Z,14.67
2022-12-14T09:12:09.503Z,13.00
2022-12-14T09:14:38.438Z,12.77
2022-12-14T09:17:06.610Z,13.20
2022-12-14T09:19:37.902Z,13.00
2022-12-14T09:22:07.296Z,13.43
2022-12-14T09:24:37.220Z,12.17
2022-12-14T09:27:06.249Z,14.77
2022-12-14T09:29:34.818Z,13.43
2022-12-14T09:32:03.309Z,16.17
2022-12-14T09:34:35.651Z,16.07
2022-12-14T09:37:07.958Z,12.80
2022-12-14T09:39:38.138Z,22.60
2022-12-14T09:42:23.333Z,14.27
2022-12-14T09:45:01.957Z,13.70
2022-12-14T09:47:37.592Z,15.77
2022-12-14T09:50:08.444Z,22.60
2022-12-14T09:52:40.926Z,29.50
2022-12-14T09:55:21.911Z,15.63
2022-12-14T09:57:55.623Z,11.43
2022-12-14T10:00:26.478Z,13.40
2022-12-14T10:03:07.109Z,11.63
2022-12-14T10:05:53.332Z,11.87
2022-12-14T10:08:32.556Z,10.87
2022-12-14T10:11:08.825Z,10.97
2022-12-14T10:13:48.682Z,12.83
2022-12-14T10:16:26.977Z,10.33
2022-12-14T10:19:14.695Z,10.27
2022-12-14T10:21:50.386Z,11.13
2022-12-14T10:24:24.134Z,12.13
2022-12-14T10:26:55.838Z,12.27
2022-12-14T10:29:32.737Z,12.87
2022-12-14T10:32:13.065Z,11.70
2022-12-14T10:34:44.428Z,13.70
2022-12-14T10:37:26.745Z,11.60
2022-12-14T10:40:29.313Z,13.03
2022-12-14T10:43:17.807Z,15.10
2022-12-14T10:45:52.510Z,11.80
2022-12-14T10:48:37.380Z,12.43
2022-12-14T10:51:09.766Z,12.93
2022-12-14T10:53:46.718Z,13.50
2022-12-14T10:56:22.072Z,13.00
2022-12-14T10:59:32.351Z,10.60
2022-12-14T11:02:14.127Z,12.60
2022-12-14T11:04:50.836Z,12.13
2022-12-14T11:07:22.502Z,13.87
2022-12-14T11:09:51.238Z,12.70
2022-12-14T11:12:24.265Z,13.90
2022-12-14T11:14:56.642Z,13.00
2022-12-14T11:17:39.837Z,12.27
2022-12-14T11:20:21.000Z,14.23
2022-12-14T11:22:52.196Z,13.13
2022-12-14T11:25:30.702Z,13.30
2022-12-14T11:28:01.418Z,15.17
2022-12-14T11:30:30.846Z,14.27
2022-12-14T11:33:01.035Z,12.70
2022-12-14T11:35:29.324Z,15.57
2022-12-14T11:38:02.561Z,13.87
2022-12-14T11:40:31.766Z,11.83
2022-12-14T11:43:30.559Z,12.53
2022-12-14T11:46:00.188Z,12.77
2022-12-14T11:48:31.221Z,11.77
2022-12-14T11:51:12.105Z,12.17
2022-12-14T11:53:41.413Z,13.67
2022-12-14T11:56:17.874Z,15.83
2022-12-14T11:58:55.508Z,12.70
2022-12-14T12:01:27.933Z,13.60
2022-12-14T12:04:00.753Z,16.37
2022-12-14T12:06:31.238Z,16.60
2022-12-14T12:09:02.344Z,12.43
2022-12-14T12:11:32.987Z,14.07
2022-12-14T12:14:04.902Z,14.10
2022-12-14T12:16:35.705Z,14.47
2022-12-14T12:19:12.514Z,16.23
2022-12-14T12:21:47.224Z,14.50
2022-12-14T12:24:20.589Z,12.83
2022-12-14T12:26:52.564Z,13.67
2022-12-14T12:29:27.333Z,11.27
2022-12-14T12:32:00.014Z,13.27
2022-12-14T12:34:34.900Z,11.07
2022-12-14T12:37:27.078Z,12.67
2022-12-14T12:40:00.772Z,10.93
2022-12-14T12:42:42.419Z,12.57
2022-12-14T12:45:18.341Z,11.27
2022-12-14T12:47:52.842Z,15.37
2022-12-14T12:50:28.804Z,13.80
2022-12-14T12:53:03.729Z,14.90
2022-12-14T12:55:35.033Z,13.43
2022-12-14T12:58:05.117Z,11.47
2022-12-14T13:00:35.944Z,14.67
2022-12-14T13:03:11.497Z,12.33
2022-12-14T13:05:46.591Z,11.77
2022-12-14T13:08:24.013Z,11.17
2022-12-14T13:13:50.562Z,12.13
2022-12-14T13:16:27.004Z,15.20
2022-12-14T13:19:18.997Z,13.27
2022-12-14T13:22:03.325Z,13.03
2022-12-14T13:24:33.940Z,13.27
2022-12-14T13:27:21.656Z,12.57
2022-12-14T13:30:03.771Z,15.60
2022-12-14T13:32:49.151Z,14.37
2022-12-14T13:35:47.311Z,13.80
2022-12-14T13:38:58.494Z,11.87
2022-12-14T13:41:34.289Z,12.27
2022-12-14T13:44:38.669Z,14.93
2022-12-14T13:47:18.754Z,12.83
2022-12-14T13:50:33.801Z,12.60
2022-12-14T13:52:47.030Z,10.83
2022-12-14T13:55:32.212Z,11.10
2022-12-14T13:58:21.004Z,12.03
2022-12-14T14:01:07.502Z,11.77
2022-12-14T14:03:59.683Z,11.77
2022-12-14T14:06:39.274Z,14.37
2022-12-14T14:09:48.121Z,13.00
2022-12-14T14:12:45.138Z,13.07
2022-12-14T14:16:04.045Z,15.33
2022-12-14T14:18:35.331Z,13.73
2022-12-14T14:21:38.929Z,13.00
2022-12-14T14:24:22.478Z,18.57
2022-12-14T14:27:02.710Z,14.70
2022-12-14T14:29:33.922Z,11.17
2022-12-14T14:32:04.066Z,10.37
2022-12-14T14:34:41.567Z,10.67
2022-12-14T14:37:24.450Z,13.33
2022-12-14T14:40:13.323Z,13.10
2022-12-14T14:42:51.797Z,11.97
2022-12-14T14:45:35.096Z,13.43
2022-12-14T14:48:10.309Z,13.17
2022-12-14T14:50:41.158Z,12.03
2022-12-14T14:53:29.231Z,9.10
2022-12-14T14:56:03.625Z,13.67
2022-12-14T14:58:35.624Z,12.10
2022-12-14T15:01:25.540Z,13.93
2022-12-14T15:04:00.915Z,10.73
2022-12-14T15:06:32.851Z,12.77
2022-12-14T15:09:06.891Z,12.23
2022-12-14T15:11:45.038Z,13.63
2022-12-14T15:14:26.685Z,14.00
2022-12-14T15:16:56.465Z,15.60
2022-12-14T15:19:26.659Z,12.20
2022-12-14T15:21:59.270Z,11.90
2022-12-14T15:24:28.883Z,15.83
2022-12-14T15:26:57.362Z,15.37
2022-12-14T15:29:29.561Z,17.93
2022-12-14T15:32:02.378Z,17.17
2022-12-14T15:34:30.948Z,17.97
2022-12-14T15:36:59.143Z,14.50
2022-12-14T15:39:38.509Z,13.57
2022-12-14T15:42:11.748Z,15.30
2022-12-14T15:44:44.083Z,14.40
2022-12-14T15:47:28.646Z,14.30
2022-12-14T15:50:16.327Z,16.20
2022-12-14T15:53:18.664Z,13.33
2022-12-14T15:56:01.030Z,14.20
2022-12-14T15:58:34.030Z,15.50
2022-12-14T16:01:11.392Z,18.80
2022-12-14T16:03:48.037Z,15.20
2022-12-14T16:06:18.282Z,13.80
2022-12-14T16:08:59.317Z,16.10
2022-12-14T16:11:33.605Z,13.43
2022-12-14T16:14:12.587Z,14.70
2022-12-14T16:16:40.921Z,18.23
2022-12-14T16:19:26.590Z,13.63
2022-12-14T16:22:12.731Z,14.40
2022-12-14T16:24:58.576Z,15.17
2022-12-14T16:27:28.509Z,14.00
2022-12-14T16:30:23.385Z,20.03
2022-12-14T16:32:54.372Z,14.07
2022-12-14T16:35:29.080Z,19.77
2022-12-14T16:38:07.251Z,17.13
2022-12-14T16:40:40.878Z,15.10
2022-12-14T16:43:26.491Z,18.60
2022-12-14T16:46:16.199Z,19.27
2022-12-14T16:49:10.847Z,24.93
2022-12-14T16:52:06.251Z,24.97
2022-12-14T16:54:33.141Z,18.30
2022-12-14T16:57:04.553Z,17.60
2022-12-14T16:59:41.202Z,17.50
2022-12-14T17:02:30.143Z,16.93
2022-12-14T17:05:00.374Z,23.67
2022-12-14T17:07:44.938Z,22.93
2022-12-14T17:10:18.586Z,23.00
2022-12-14T17:12:48.458Z,27.43
2022-12-14T17:15:18.605Z,18.50
2022-12-14T17:17:49.437Z,16.33
2022-12-14T17:20:24.298Z,15.30
2022-12-14T17:22:55.137Z,13.47
2022-12-14T17:25:29.181Z,17.37
2022-12-14T17:27:57.968Z,18.33
2022-12-14T17:30:26.812Z,18.60
2022-12-14T17:32:56.249Z,17.00
2022-12-14T17:35:26.976Z,19.23
2022-12-14T17:37:57.393Z,19.40
2022-12-14T17:40:26.302Z,19.10
2022-12-14T17:42:58.596Z,19.03
2022-12-14T17:45:29.581Z,16.03
2022-12-14T17:47:58.833Z,21.77
2022-12-14T17:50:28.242Z,20.83
2022-12-14T17:52:57.861Z,23.43
2022-12-14T17:55:28.269Z,27.23
2022-12-14T17:58:00.431Z,44.53
2022-12-14T18:00:50.771Z,43.37
2022-12-14T18:03:20.807Z,42.57
2022-12-14T18:05:50.607Z,38.80
2022-12-14T18:08:21.304Z,29.27
2022-12-14T18:10:52.622Z,44.30
2022-12-14T18:13:30.032Z,94.97
2022-12-14T18:16:00.705Z,67.83
2022-12-14T18:18:29.832Z,202.97
2022-12-14T18:21:00.833Z,624.93
2022-12-14T18:23:32.056Z,242.37
2022-12-14T18:26:02.803Z,113.20
2022-12-14T18:28:31.472Z,45.83
2022-12-14T18:31:05.170Z,47.93
2022-12-14T18:33:35.367Z,78.53
2022-12-14T18:36:03.947Z,83.47
2022-12-14T18:38:33.728Z,35.00
2022-12-14T18:41:03.410Z,30.13
2022-12-14T18:43:32.443Z,30.80
2022-12-14T18:46:01.542Z,28.27
2022-12-14T18:48:29.991Z,24.40
2022-12-14T18:51:00.050Z,24.50
2022-12-14T18:53:29.732Z,18.80
2022-12-14T18:56:00.195Z,24.57
2022-12-14T18:58:30.822Z,25.27
2022-12-14T19:01:02.019Z,25.90
2022-12-14T19:03:33.718Z,33.23
2022-12-14T19:06:42.291Z,30.17
2022-12-14T19:08:57.210Z,29.10
2022-12-14T19:11:35.010Z,30.27
2022-12-14T19:14:04.710Z,34.50
2022-12-14T19:16:33.318Z,27.17
2022-12-14T19:19:01.973Z,31.47
2022-12-14T19:21:31.687Z,30.67
2022-12-14T19:24:00.541Z,28.17
2022-12-14T19:26:32.675Z,28.60
2022-12-14T19:29:02.514Z,35.50
2022-12-14T19:31:32.409Z,36.47
2022-12-14T19:34:00.809Z,37.47
2022-12-14T19:36:29.297Z,35.67
2022-12-14T19:39:00.233Z,31.97
2022-12-14T19:41:28.549Z,34.80
2022-12-14T19:43:59.017Z,29.47
2022-12-14T19:46:27.687Z,31.00
2022-12-14T19:48:59.442Z,28.77
2022-12-14T19:51:27.833Z,27.27
2022-12-14T19:53:56.715Z,25.20
2022-12-14T19:56:26.643Z,23.43
2022-12-14T19:58:57.839Z,24.47
2022-12-14T20:01:34.401Z,28.83
2022-12-14T20:04:03.578Z,26.73
2022-12-14T20:06:32.182Z,42.53
2022-12-14T20:09:02.183Z,89.87
2022-12-14T20:11:30.710Z,61.77
2022-12-14T20:14:03.148Z,34.60
2022-12-14T20:16:33.343Z,39.37
2022-12-14T20:19:01.528Z,32.57
2022-12-14T20:21:29.971Z,27.30
2022-12-14T20:23:59.212Z,25.27
2022-12-14T20:26:28.758Z,23.80
2022-12-14T20:29:01.109Z,20.10
2022-12-14T20:31:29.746Z,19.10
2022-12-14T20:34:01.112Z,20.10
2022-12-14T20:36:33.259Z,21.63
2022-12-14T20:39:03.550Z,18.30
2022-12-14T20:41:33.313Z,20.17
2022-12-14T20:44:03.354Z,21.50
2022-12-14T20:46:33.873Z,18.30
2022-12-14T20:49:06.423Z,18.70
2022-12-14T20:51:36.474Z,24.00
2022-12-14T20:54:06.165Z,23.50
2022-12-14T20:56:38.998Z,25.40
2022-12-14T20:59:07.779Z,24.73
2022-12-14T21:01:41.038Z,23.73
2022-12-14T21:04:11.482Z,22.73
2022-12-14T21:06:41.872Z,22.97
2022-12-14T21:09:12.006Z,22.20
2022-12-14T21:12:03.304Z,19.80
2022-12-14T21:14:34.079Z,22.13
2022-12-14T21:17:04.156Z,18.90
2022-12-14T21:19:36.123Z,24.60
2022-12-14T21:22:04.514Z,20.50
2022-12-14T21:27:24.073Z,19.73
2022-12-14T21:29:52.585Z,28.53
2022-12-14T21:32:22.240Z,82.60
2022-12-14T21:34:52.927Z,106.83
2022-12-14T21:37:22.203Z,46.47
2022-12-14T21:39:54.247Z,30.30
2022-12-14T21:42:22.648Z,26.77
2022-12-14T21:44:53.962Z,30.63
2022-12-14T21:47:24.563Z,29.50
2022-12-14T21:49:54.574Z,30.20
2022-12-14T21:52:24.584Z,28.27
2022-12-14T21:54:53.256Z,32.13
2022-12-14T21:57:40.471Z,34.70
2022-12-14T22:00:12.395Z,36.40
2022-12-14T22:02:41.925Z,31.93
2022-12-14T22:05:13.758Z,32.00
2022-12-14T22:07:42.464Z,32.37
2022-12-14T22:10:12.486Z,33.30
2022-12-14T22:12:42.070Z,32.33
2022-12-14T22:15:14.841Z,30.80
2022-12-14T22:17:44.732Z,33.93
2022-12-14T22:20:15.847Z,33.93
2022-12-14T22:22:45.090Z,29.80
2022-12-14T22:25:13.498Z,30.23
2022-12-14T22:27:41.654Z,26.30
2022-12-14T22:30:13.143Z,27.20
2022-12-14T22:32:42.458Z,26.53
2022-12-14T22:35:11.085Z,47.23
2022-12-14T22:37:42.044Z,46.57
2022-12-14T22:40:12.087Z,47.53
2022-12-14T22:42:43.937Z,35.43
2022-12-14T22:45:14.599Z,36.77
2022-12-14T22:47:42.818Z,35.70
2022-12-14T22:50:11.924Z,32.07
2022-12-14T22:52:42.060Z,27.23
2022-12-14T22:55:11.625Z,28.80
2022-12-14T22:57:44.403Z,28.67
2022-12-14T23:00:17.082Z,38.13
2022-12-14T23:02:48.770Z,28.53
2022-12-14T23:05:20.219Z,31.17
2022-12-14T23:07:50.326Z,32.90
2022-12-14T23:10:35.701Z,39.33
2022-12-14T23:13:21.066Z,33.00
2022-12-14T23:16:06.388Z,30.37
2022-12-14T23:18:51.980Z,50.50
2022-12-14T23:21:40.087Z,59.87
2022-12-14T23:24:27.555Z,30.90
2022-12-14T23:27:13.446Z,26.43
2022-12-14T23:29:59.215Z,53.83
2022-12-14T23:32:44.614Z,32.93
2022-12-14T23:35:30.721Z,30.80
2022-12-14T23:38:22.174Z,26.63
2022-12-14T23:41:17.666Z,32.10
2022-12-14T23:44:05.507Z,55.07
2022-12-14T23:46:51.799Z,38.70
2022-12-14T23:49:37.741Z,42.57
2022-12-14T23:52:23.668Z,22.40
2022-12-14T23:55:09.433Z,20.27
2022-12-14T23:57:56.815Z,27.20
